Wetterdaten: Woche 31.03.08 - 06.04.08 (KW14)
Datum Zeit Temperatur Luftfeuchte Luftdruck Niederschlag Wind Richtung Sonnenschein Solar Taupunkt Windchill Windben
31.03.2008 00:00 7.4 C 77 % 1011.5 hPa 0.0 l/m 1.2 km/h (1 Bft) SO 0.00 h 0 W/m 3.6 C 7.4 C 2.9 km/h (1 Bft)
31.03.2008 01:00 10.0 C 70 % 1012.3 hPa 0.0 l/m 11.9 km/h (2 Bft) W-NW 0.00 h 0 W/m 4.8 C 9.6 C 18.6 km/h (3 Bft)
31.03.2008 02:00 10.2 C 73 % 1013.1 hPa 0.0 l/m 7.5 km/h (2 Bft) W-NW 0.00 h 0 W/m 5.6 C 9.9 C 12.6 km/h (3 Bft)
31.03.2008 03:00 9.0 C 76 % 1013.2 hPa 0.0 l/m 6.1 km/h (2 Bft) W 0.00 h 0 W/m 5.1 C 8.4 C 9.6 km/h (2 Bft)
31.03.2008 04:00 8.6 C 78 % 1013.4 hPa 0.0 l/m 6.2 km/h (2 Bft) W 0.00 h 0 W/m 5.0 C 7.7 C 10.2 km/h (2 Bft)
31.03.2008 05:00 7.6 C 76 % 1014.1 hPa 0.0 l/m 9.2 km/h (2 Bft) W 0.00 h 0 W/m 3.6 C 6.0 C 13.6 km/h (3 Bft)
31.03.2008 06:00 7.2 C 76 % 1014.6 hPa 0.0 l/m 8.9 km/h (2 Bft) W 0.00 h 0 W/m 3.2 C 5.6 C 13.4 km/h (3 Bft)
31.03.2008 07:00 7.0 C 78 % 1015.4 hPa 0.0 l/m 7.3 km/h (2 Bft) W 0.00 h 6 W/m 3.4 C 5.8 C 11.5 km/h (2 Bft)
31.03.2008 08:00 6.7 C 82 % 1016.3 hPa 0.2 l/m 7.3 km/h (2 Bft) W 0.00 h 16 W/m 3.9 C 5.4 C 11.2 km/h (2 Bft)
31.03.2008 09:00 6.3 C 90 % 1017.1 hPa 0.4 l/m 0.7 km/h (0 Bft) W 0.00 h 35 W/m 4.8 C 6.3 C 1.6 km/h (1 Bft)
31.03.2008 10:00 6.6 C 91 % 1017.8 hPa 0.2 l/m 0.4 km/h (0 Bft) W 0.00 h 89 W/m 5.2 C 6.6 C 1.1 km/h (1 Bft)
31.03.2008 11:00 7.2 C 91 % 1018.0 hPa 0.2 l/m 0.3 km/h (0 Bft) W 0.00 h 176 W/m 5.7 C 7.2 C 1.2 km/h (1 Bft)
31.03.2008 12:00 8.3 C 85 % 1017.9 hPa 0.0 l/m 1.6 km/h (1 Bft) W-SW 0.00 h 292 W/m 5.9 C 8.3 C 3.6 km/h (1 Bft)
31.03.2008 13:00 9.4 C 75 % 1017.9 hPa 0.0 l/m 1.9 km/h (1 Bft) W 0.00 h 312 W/m 5.1 C 9.3 C 4.0 km/h (1 Bft)
31.03.2008 14:00 10.4 C 70 % 1017.8 hPa 0.0 l/m 1.3 km/h (1 Bft) N-NW 0.00 h 329 W/m 5.1 C 10.4 C 2.8 km/h (1 Bft)
31.03.2008 15:00 10.6 C 69 % 1018.1 hPa 0.0 l/m 1.4 km/h (1 Bft) SO 0.10 h 310 W/m 5.1 C 10.6 C 3.0 km/h (1 Bft)
31.03.2008 16:00 10.8 C 68 % 1018.1 hPa 0.0 l/m 0.7 km/h (0 Bft) SO 0.12 h 203 W/m 5.2 C 10.8 C 2.2 km/h (1 Bft)
31.03.2008 17:00 11.0 C 68 % 1018.6 hPa 0.0 l/m 2.4 km/h (1 Bft) N-NW 0.20 h 152 W/m 5.2 C 11.0 C 4.4 km/h (1 Bft)
31.03.2008 18:00 9.8 C 76 % 1019.2 hPa 0.2 l/m 0.0 km/h (0 Bft) N 0.00 h 45 W/m 5.8 C 9.8 C 0.4 km/h (0 Bft)
31.03.2008 19:00 9.5 C 79 % 1019.9 hPa 0.0 l/m 0.2 km/h (0 Bft) N 0.00 h 13 W/m 6.0 C 9.5 C 0.6 km/h (0 Bft)
31.03.2008 20:00 8.7 C 86 % 1020.8 hPa 0.0 l/m 0.1 km/h (0 Bft) N 0.00 h 0 W/m 6.6 C 8.7 C 0.7 km/h (0 Bft)
31.03.2008 21:00 8.1 C 90 % 1021.5 hPa 0.0 l/m 0.1 km/h (0 Bft) N 0.00 h 0 W/m 6.5 C 8.1 C 0.4 km/h (0 Bft)
31.03.2008 22:00 7.5 C 92 % 1021.7 hPa 0.0 l/m 0.0 km/h (0 Bft) N 0.00 h 0 W/m 6.3 C 7.5 C 0.3 km/h (0 Bft)
31.03.2008 23:00 6.6 C 94 % 1022.0 hPa 0.0 l/m 0.5 km/h (0 Bft) N 0.00 h 0 W/m 5.7 C 6.6 C 1.0 km/h (0 Bft)
01.04.2008 00:00 6.2 C 96 % 1022.4 hPa 0.0 l/m 0.0 km/h (0 Bft) N 0.00 h 0 W/m 5.6 C 6.2 C 0.0 km/h (0 Bft)
01.04.2008 01:00 5.8 C 96 % 1022.6 hPa 0.0 l/m 0.0 km/h (0 Bft) N 0.00 h 0 W/m 5.2 C 5.8 C 0.4 km/h (0 Bft)
01.04.2008 02:00 5.7 C 95 % 1022.6 hPa 0.0 l/m 0.1 km/h (0 Bft) N 0.00 h 0 W/m 5.0 C 5.7 C 0.5 km/h (0 Bft)
01.04.2008 03:00 5.5 C 95 % 1022.6 hPa 0.0 l/m 0.1 km/h (0 Bft) N 0.00 h 0 W/m 4.7 C 5.5 C 0.2 km/h (0 Bft)
01.04.2008 04:00 5.5 C 93 % 1022.8 hPa 0.0 l/m 0.1 km/h (0 Bft) N 0.00 h 0 W/m 4.4 C 5.5 C 0.4 km/h (0 Bft)
01.04.2008 05:00 5.5 C 92 % 1023.2 hPa 0.0 l/m 0.1 km/h (0 Bft) N 0.00 h 0 W/m 4.4 C 5.5 C 0.5 km/h (0 Bft)
01.04.2008 06:00 5.4 C 93 % 1023.7 hPa 0.0 l/m 0.5 km/h (0 Bft) N 0.00 h 0 W/m 4.4 C 5.4 C 1.2 km/h (1 Bft)
01.04.2008 07:00 5.6 C 94 % 1024.0 hPa 0.0 l/m 0.3 km/h (0 Bft) N 0.00 h 16 W/m 4.7 C 5.6 C 0.6 km/h (0 Bft)
01.04.2008 08:00 6.0 C 92 % 1024.5 hPa 0.0 l/m 0.1 km/h (0 Bft) N 0.00 h 48 W/m 4.9 C 6.0 C 0.7 km/h (0 Bft)
01.04.2008 09:00 6.5 C 88 % 1024.9 hPa 0.0 l/m 0.0 km/h (0 Bft) N 0.00 h 77 W/m 4.8 C 6.5 C 0.3 km/h (0 Bft)
01.04.2008 10:00 7.3 C 86 % 1025.0 hPa 0.0 l/m 0.1 km/h (0 Bft) N 0.00 h 135 W/m 5.2 C 7.3 C 0.6 km/h (0 Bft)
01.04.2008 11:00 8.4 C 81 % 1025.0 hPa 0.0 l/m 0.5 km/h (0 Bft) N 0.00 h 171 W/m 5.3 C 8.4 C 1.5 km/h (1 Bft)
01.04.2008 12:00 9.4 C 76 % 1025.0 hPa 0.0 l/m 0.6 km/h (0 Bft) N 0.00 h 236 W/m 5.3 C 9.4 C 2.2 km/h (1 Bft)
01.04.2008 13:00 11.3 C 68 % 1024.9 hPa 0.0 l/m 1.0 km/h (0 Bft) O-NO 0.43 h 402 W/m 5.5 C 11.3 C 2.9 km/h (1 Bft)
01.04.2008 14:00 13.2 C 60 % 1024.6 hPa 0.0 l/m 2.6 km/h (1 Bft) S-SO 0.75 h 589 W/m 5.6 C 13.2 C 5.6 km/h (1 Bft)
01.04.2008 15:00 13.9 C 58 % 1024.1 hPa 0.0 l/m 2.8 km/h (1 Bft) W-SW 0.45 h 396 W/m 5.8 C 13.9 C 5.6 km/h (1 Bft)
01.04.2008 16:00 15.1 C 55 % 1023.6 hPa 0.0 l/m 4.5 km/h (1 Bft) SW 0.95 h 456 W/m 6.1 C 15.1 C 8.6 km/h (2 Bft)
01.04.2008 17:00 14.8 C 54 % 1023.0 hPa 0.0 l/m 3.8 km/h (1 Bft) W-SW 0.67 h 244 W/m 5.6 C 14.8 C 7.3 km/h (2 Bft)
01.04.2008 18:00 14.0 C 56 % 1022.9 hPa 0.0 l/m 2.2 km/h (1 Bft) W-SW 0.07 h 108 W/m 5.4 C 14.0 C 4.7 km/h (1 Bft)
01.04.2008 19:00 12.9 C 61 % 1023.1 hPa 0.0 l/m 2.6 km/h (1 Bft) SW 0.02 h 32 W/m 5.6 C 12.9 C 5.3 km/h (1 Bft)
01.04.2008 20:00 11.5 C 67 % 1023.5 hPa 0.0 l/m 1.7 km/h (1 Bft) S-SW 0.00 h 0 W/m 5.5 C 11.5 C 3.4 km/h (1 Bft)
01.04.2008 21:00 11.4 C 63 % 1024.2 hPa 0.0 l/m 5.3 km/h (1 Bft) W 0.00 h 0 W/m 4.6 C 11.4 C 8.0 km/h (2 Bft)
01.04.2008 22:00 11.4 C 59 % 1024.3 hPa 0.0 l/m 9.8 km/h (2 Bft) W 0.00 h 0 W/m 3.7 C 11.4 C 14.9 km/h (3 Bft)
01.04.2008 23:00 11.4 C 59 % 1024.1 hPa 0.0 l/m 12.1 km/h (2 Bft) W 0.00 h 0 W/m 3.6 C 11.4 C 18.0 km/h (3 Bft)
02.04.2008 00:00 11.7 C 58 % 1023.9 hPa 0.0 l/m 10.1 km/h (2 Bft) W 0.00 h 0 W/m 3.7 C 11.7 C 15.7 km/h (3 Bft)
02.04.2008 01:00 11.5 C 60 % 1023.8 hPa 0.0 l/m 15.0 km/h (3 Bft) W 0.00 h 0 W/m 4.0 C 11.5 C 22.8 km/h (4 Bft)
02.04.2008 02:00 10.9 C 64 % 1024.1 hPa 0.0 l/m 10.3 km/h (2 Bft) W 0.00 h 0 W/m 4.3 C 10.9 C 16.1 km/h (3 Bft)
02.04.2008 03:00 10.5 C 66 % 1023.9 hPa 0.0 l/m 8.7 km/h (2 Bft) W 0.00 h 0 W/m 4.5 C 10.5 C 13.9 km/h (3 Bft)
02.04.2008 04:00 10.2 C 69 % 1023.5 hPa 0.0 l/m 6.4 km/h (2 Bft) W 0.00 h 0 W/m 4.8 C 10.2 C 10.4 km/h (2 Bft)
02.04.2008 05:00 9.9 C 70 % 1022.7 hPa 0.0 l/m 3.8 km/h (1 Bft) W-SW 0.00 h 0 W/m 4.7 C 9.7 C 6.6 km/h (2 Bft)
02.04.2008 06:00 10.3 C 67 % 1022.5 hPa 0.0 l/m 12.2 km/h (2 Bft) W 0.00 h 0 W/m 4.4 C 10.3 C 18.9 km/h (3 Bft)
02.04.2008 07:00 10.1 C 70 % 1022.6 hPa 0.0 l/m 14.8 km/h (3 Bft) W 0.00 h 9 W/m 4.9 C 10.1 C 22.7 km/h (4 Bft)
02.04.2008 08:00 9.8 C 74 % 1023.1 hPa 0.0 l/m 15.8 km/h (3 Bft) W 0.00 h 49 W/m 5.4 C 7.9 C 24.2 km/h (4 Bft)
02.04.2008 09:00 10.0 C 73 % 1022.9 hPa 0.0 l/m 19.4 km/h (3 Bft) W 0.00 h 155 W/m 5.4 C 8.4 C 29.4 km/h (5 Bft)
02.04.2008 10:00 10.2 C 71 % 1022.3 hPa 0.0 l/m 21.4 km/h (4 Bft) W 0.00 h 227 W/m 5.2 C 10.2 C 31.4 km/h (5 Bft)
02.04.2008 11:00 10.3 C 67 % 1022.6 hPa 0.0 l/m 22.9 km/h (4 Bft) W 0.17 h 273 W/m 4.4 C 10.3 C 33.6 km/h (5 Bft)
02.04.2008 12:00 10.3 C 65 % 1023.2 hPa 0.0 l/m 16.1 km/h (3 Bft) W 0.00 h 207 W/m 3.9 C 10.0 C 24.5 km/h (4 Bft)
02.04.2008 13:00 11.1 C 61 % 1022.7 hPa 0.0 l/m 19.0 km/h (3 Bft) W 0.55 h 423 W/m 4.0 C 11.1 C 27.4 km/h (4 Bft)
02.04.2008 14:00 11.7 C 56 % 1022.2 hPa 0.0 l/m 17.5 km/h (3 Bft) W 0.35 h 333 W/m 3.3 C 11.7 C 26.7 km/h (4 Bft)
02.04.2008 15:00 11.6 C 54 % 1022.1 hPa 0.0 l/m 13.8 km/h (3 Bft) W 0.15 h 250 W/m 2.7 C 11.6 C 20.8 km/h (4 Bft)
02.04.2008 16:00 11.3 C 56 % 1021.9 hPa 0.0 l/m 14.6 km/h (3 Bft) W 0.00 h 151 W/m 2.8 C 11.3 C 22.4 km/h (4 Bft)
02.04.2008 17:00 11.1 C 57 % 1021.8 hPa 0.0 l/m 13.2 km/h (3 Bft) W 0.00 h 74 W/m 2.8 C 11.1 C 21.1 km/h (4 Bft)
02.04.2008 18:00 10.7 C 58 % 1021.8 hPa 0.0 l/m 12.9 km/h (3 Bft) W 0.00 h 48 W/m 2.7 C 10.7 C 19.6 km/h (3 Bft)
02.04.2008 19:00 10.1 C 60 % 1021.9 hPa 0.0 l/m 11.5 km/h (2 Bft) W 0.00 h 10 W/m 2.7 C 10.0 C 17.7 km/h (3 Bft)
02.04.2008 20:00 9.8 C 62 % 1022.3 hPa 0.0 l/m 11.5 km/h (2 Bft) W 0.00 h 0 W/m 2.8 C 8.5 C 18.1 km/h (3 Bft)
02.04.2008 21:00 9.3 C 64 % 1022.8 hPa 0.0 l/m 10.4 km/h (2 Bft) W-NW 0.00 h 0 W/m 2.9 C 7.8 C 16.3 km/h (3 Bft)
02.04.2008 22:00 8.9 C 67 % 1023.0 hPa 0.0 l/m 12.0 km/h (2 Bft) W 0.00 h 0 W/m 3.1 C 7.1 C 18.7 km/h (3 Bft)
02.04.2008 23:00 8.9 C 68 % 1022.7 hPa 0.0 l/m 15.4 km/h (3 Bft) W-NW 0.00 h 0 W/m 3.3 C 6.5 C 22.7 km/h (4 Bft)
03.04.2008 00:00 8.7 C 69 % 1022.1 hPa 0.0 l/m 17.8 km/h (3 Bft) W 0.00 h 0 W/m 3.4 C 6.0 C 26.9 km/h (4 Bft)
03.04.2008 01:00 8.2 C 74 % 1022.1 hPa 0.4 l/m 12.2 km/h (2 Bft) W-NW 0.00 h 0 W/m 3.9 C 6.1 C 19.3 km/h (3 Bft)
03.04.2008 02:00 7.6 C 80 % 1022.0 hPa 0.8 l/m 10.0 km/h (2 Bft) W-NW 0.00 h 0 W/m 4.4 C 5.8 C 15.6 km/h (3 Bft)
03.04.2008 03:00 7.1 C 86 % 1021.5 hPa 0.2 l/m 10.6 km/h (2 Bft) W 0.00 h 0 W/m 4.9 C 5.1 C 16.8 km/h (3 Bft)
03.04.2008 04:00 6.4 C 91 % 1021.3 hPa 1.6 l/m 6.4 km/h (2 Bft) W-NW 0.00 h 0 W/m 5.0 C 5.4 C 10.3 km/h (2 Bft)
03.04.2008 05:00 6.0 C 93 % 1021.5 hPa 0.0 l/m 4.3 km/h (1 Bft) W-NW 0.00 h 0 W/m 5.0 C 5.5 C 7.1 km/h (2 Bft)
03.04.2008 06:00 5.6 C 91 % 1021.7 hPa 0.0 l/m 2.9 km/h (1 Bft) W-NW 0.00 h 0 W/m 4.3 C 5.4 C 5.1 km/h (1 Bft)
03.04.2008 07:00 5.2 C 91 % 1021.9 hPa 0.0 l/m 2.0 km/h (1 Bft) O 0.03 h 26 W/m 3.8 C 5.1 C 4.0 km/h (1 Bft)
03.04.2008 08:00 6.6 C 84 % 1022.2 hPa 0.0 l/m 8.5 km/h (2 Bft) W 0.42 h 123 W/m 4.1 C 5.0 C 13.2 km/h (3 Bft)
03.04.2008 09:00 6.6 C 82 % 1022.7 hPa 0.4 l/m 8.1 km/h (2 Bft) W 0.52 h 250 W/m 3.6 C 5.1 C 12.6 km/h (3 Bft)
03.04.2008 10:00 6.9 C 76 % 1022.9 hPa 0.0 l/m 4.9 km/h (1 Bft) W-NW 0.13 h 222 W/m 3.0 C 6.3 C 8.5 km/h (2 Bft)
03.04.2008 11:00 7.2 C 75 % 1022.8 hPa 0.0 l/m 5.1 km/h (1 Bft) W 0.00 h 89 W/m 3.0 C 6.5 C 8.7 km/h (2 Bft)
03.04.2008 12:00 7.0 C 77 % 1023.1 hPa 0.0 l/m 7.7 km/h (2 Bft) W 0.00 h 155 W/m 3.3 C 5.6 C 12.5 km/h (3 Bft)
03.04.2008 13:00 8.4 C 66 % 1023.3 hPa 0.2 l/m 9.7 km/h (2 Bft) N-NW 0.13 h 329 W/m 2.3 C 6.9 C 15.6 km/h (3 Bft)
03.04.2008 14:00 9.3 C 57 % 1023.2 hPa 0.0 l/m 8.2 km/h (2 Bft) N-NW 0.17 h 331 W/m 1.4 C 8.4 C 13.8 km/h (3 Bft)
03.04.2008 15:00 9.4 C 56 % 1023.0 hPa 0.0 l/m 3.2 km/h (1 Bft) W-NW 0.00 h 236 W/m 1.1 C 9.2 C 5.6 km/h (1 Bft)
03.04.2008 16:00 10.1 C 50 % 1022.9 hPa 0.0 l/m 5.4 km/h (1 Bft) N-NW 0.05 h 197 W/m 0.1 C 9.8 C 9.2 km/h (2 Bft)
03.04.2008 17:00 9.3 C 55 % 1023.2 hPa 0.0 l/m 7.9 km/h (2 Bft) N-NW 0.00 h 127 W/m 0.7 C 8.3 C 13.2 km/h (3 Bft)
03.04.2008 18:00 8.8 C 57 % 1023.5 hPa 0.0 l/m 5.7 km/h (1 Bft) W-NW 0.00 h 82 W/m 0.9 C 8.1 C 9.4 km/h (2 Bft)
03.04.2008 19:00 8.3 C 60 % 1024.2 hPa 0.0 l/m 4.1 km/h (1 Bft) W-NW 0.00 h 24 W/m 1.0 C 8.0 C 7.0 km/h (2 Bft)
03.04.2008 20:00 7.9 C 63 % 1024.8 hPa 0.0 l/m 3.6 km/h (1 Bft) N-NW 0.00 h 0 W/m 1.3 C 7.6 C 6.6 km/h (2 Bft)
03.04.2008 21:00 7.3 C 67 % 1025.6 hPa 0.0 l/m 2.4 km/h (1 Bft) W-NW 0.00 h 0 W/m 1.6 C 7.1 C 4.2 km/h (1 Bft)
03.04.2008 22:00 6.5 C 74 % 1026.3 hPa 0.8 l/m 3.9 km/h (1 Bft) O-SO 0.00 h 0 W/m 2.3 C 6.1 C 6.2 km/h (2 Bft)
03.04.2008 23:00 5.4 C 88 % 1026.8 hPa 0.0 l/m 2.1 km/h (1 Bft) O-SO 0.00 h 0 W/m 3.5 C 5.2 C 3.6 km/h (1 Bft)
04.04.2008 00:00 5.1 C 90 % 1027.2 hPa 0.0 l/m 0.7 km/h (0 Bft) SO 0.00 h 0 W/m 3.6 C 5.1 C 1.9 km/h (1 Bft)
04.04.2008 01:00 5.0 C 90 % 1027.2 hPa 0.0 l/m 1.2 km/h (1 Bft) O-NO 0.00 h 0 W/m 3.5 C 5.0 C 2.2 km/h (1 Bft)
04.04.2008 02:00 4.9 C 91 % 1027.2 hPa 0.0 l/m 1.6 km/h (1 Bft) O-NO 0.00 h 0 W/m 3.5 C 4.7 C 2.6 km/h (1 Bft)
04.04.2008 03:00 4.6 C 91 % 1027.2 hPa 0.0 l/m 1.1 km/h (1 Bft) O 0.00 h 0 W/m 3.3 C 4.6 C 1.8 km/h (1 Bft)
04.04.2008 04:00 4.4 C 92 % 1027.3 hPa 0.0 l/m 0.8 km/h (0 Bft) O 0.00 h 0 W/m 3.3 C 4.4 C 1.6 km/h (1 Bft)
04.04.2008 05:00 3.9 C 93 % 1027.3 hPa 0.0 l/m 2.2 km/h (1 Bft) O 0.00 h 0 W/m 2.9 C 3.9 C 3.6 km/h (1 Bft)
04.04.2008 06:00 3.2 C 93 % 1027.7 hPa 0.0 l/m 3.3 km/h (1 Bft) O 0.00 h 0 W/m 2.2 C 2.8 C 4.6 km/h (1 Bft)
04.04.2008 07:00 3.1 C 94 % 1027.9 hPa 0.0 l/m 1.4 km/h (1 Bft) O 0.00 h 22 W/m 2.3 C 3.1 C 2.5 km/h (1 Bft)
04.04.2008 08:00 3.8 C 94 % 1028.0 hPa 0.0 l/m 0.2 km/h (0 Bft) O 0.00 h 84 W/m 2.9 C 3.8 C 0.7 km/h (0 Bft)
04.04.2008 09:00 5.2 C 90 % 1028.1 hPa 0.0 l/m 0.6 km/h (0 Bft) N-NO 0.00 h 157 W/m 3.7 C 5.2 C 2.0 km/h (1 Bft)
04.04.2008 10:00 6.7 C 83 % 1028.3 hPa 0.0 l/m 1.2 km/h (1 Bft) N-NO 0.03 h 265 W/m 3.9 C 6.7 C 2.9 km/h (1 Bft)
04.04.2008 11:00 8.2 C 71 % 1028.1 hPa 0.0 l/m 3.6 km/h (1 Bft) O-SO 0.33 h 340 W/m 3.3 C 8.0 C 6.8 km/h (2 Bft)
04.04.2008 12:00 8.9 C 68 % 1027.6 hPa 0.0 l/m 3.9 km/h (1 Bft) O-SO 0.52 h 379 W/m 3.3 C 8.6 C 6.8 km/h (2 Bft)
04.04.2008 13:00 9.4 C 62 % 1026.9 hPa 0.0 l/m 4.2 km/h (1 Bft) N-NW 0.00 h 212 W/m 2.6 C 9.0 C 7.3 km/h (2 Bft)
04.04.2008 14:00 9.4 C 62 % 1026.3 hPa 0.0 l/m 6.0 km/h (2 Bft) N-NW 0.00 h 204 W/m 2.4 C 8.7 C 9.7 km/h (2 Bft)
04.04.2008 15:00 10.1 C 59 % 1025.8 hPa 0.0 l/m 3.0 km/h (1 Bft) N-NW 0.13 h 311 W/m 2.4 C 10.1 C 5.8 km/h (2 Bft)
04.04.2008 16:00 11.6 C 52 % 1024.9 hPa 0.0 l/m 3.4 km/h (1 Bft) N-NW 0.92 h 466 W/m 2.1 C 11.6 C 6.1 km/h (2 Bft)
04.04.2008 17:00 11.1 C 51 % 1024.3 hPa 0.0 l/m 3.3 km/h (1 Bft) O-SO 0.75 h 299 W/m 1.3 C 11.1 C 6.1 km/h (2 Bft)
04.04.2008 18:00 10.1 C 52 % 1024.0 hPa 0.0 l/m 1.4 km/h (1 Bft) O 0.00 h 84 W/m 0.7 C 10.0 C 2.9 km/h (1 Bft)
04.04.2008 19:00 9.2 C 58 % 1023.7 hPa 0.0 l/m 1.8 km/h (1 Bft) O 0.00 h 25 W/m 1.3 C 9.2 C 3.1 km/h (1 Bft)
04.04.2008 20:00 8.2 C 65 % 1023.6 hPa 0.0 l/m 1.1 km/h (1 Bft) O 0.00 h 0 W/m 2.0 C 8.2 C 2.0 km/h (1 Bft)
04.04.2008 21:00 7.3 C 71 % 1023.5 hPa 0.0 l/m 0.6 km/h (0 Bft) O 0.00 h 0 W/m 2.5 C 7.3 C 1.5 km/h (1 Bft)
04.04.2008 22:00 6.4 C 79 % 1023.1 hPa 0.0 l/m 1.1 km/h (1 Bft) O 0.00 h 0 W/m 3.0 C 6.3 C 1.9 km/h (1 Bft)
04.04.2008 23:00 6.0 C 81 % 1022.5 hPa 0.0 l/m 0.2 km/h (0 Bft) O 0.00 h 0 W/m 3.0 C 6.0 C 0.7 km/h (0 Bft)
05.04.2008 00:00 5.5 C 81 % 1021.8 hPa 0.0 l/m 0.8 km/h (0 Bft) O 0.00 h 0 W/m 2.6 C 5.5 C 1.8 km/h (1 Bft)
05.04.2008 01:00 5.0 C 85 % 1021.0 hPa 0.0 l/m 0.8 km/h (0 Bft) O 0.00 h 0 W/m 2.7 C 5.0 C 1.6 km/h (1 Bft)
05.04.2008 02:00 5.0 C 86 % 1020.5 hPa 0.0 l/m 0.1 km/h (0 Bft) O 0.00 h 0 W/m 2.8 C 5.0 C 0.3 km/h (0 Bft)
05.04.2008 03:00 4.8 C 85 % 1019.6 hPa 0.0 l/m 0.7 km/h (0 Bft) O 0.00 h 0 W/m 2.5 C 4.8 C 1.4 km/h (1 Bft)
05.04.2008 04:00 4.7 C 86 % 1018.9 hPa 0.0 l/m 0.6 km/h (0 Bft) O 0.00 h 0 W/m 2.6 C 4.7 C 1.3 km/h (1 Bft)
05.04.2008 05:00 4.7 C 86 % 1018.5 hPa 0.0 l/m 1.2 km/h (1 Bft) O 0.00 h 0 W/m 2.6 C 4.6 C 2.1 km/h (1 Bft)
05.04.2008 06:00 4.6 C 88 % 1018.0 hPa 0.0 l/m 0.1 km/h (0 Bft) O 0.00 h 0 W/m 2.7 C 4.6 C 0.2 km/h (0 Bft)
05.04.2008 07:00 4.6 C 89 % 1017.6 hPa 0.0 l/m 0.6 km/h (0 Bft) O 0.00 h 17 W/m 2.9 C 4.6 C 1.2 km/h (1 Bft)
05.04.2008 08:00 4.9 C 87 % 1017.3 hPa 0.0 l/m 0.5 km/h (0 Bft) O 0.00 h 44 W/m 3.0 C 4.9 C 1.5 km/h (1 Bft)
05.04.2008 09:00 6.0 C 81 % 1016.5 hPa 0.0 l/m 2.0 km/h (1 Bft) S-SO 0.00 h 169 W/m 3.0 C 5.9 C 4.5 km/h (1 Bft)
05.04.2008 10:00 7.5 C 73 % 1016.0 hPa 0.0 l/m 2.4 km/h (1 Bft) S-SW 0.00 h 249 W/m 3.0 C 7.4 C 5.3 km/h (1 Bft)
05.04.2008 11:00 8.5 C 69 % 1015.0 hPa 0.0 l/m 3.1 km/h (1 Bft) S 0.05 h 267 W/m 3.1 C 8.4 C 6.4 km/h (2 Bft)
05.04.2008 12:00 10.2 C 62 % 1013.8 hPa 0.0 l/m 5.1 km/h (1 Bft) S-SO 0.32 h 501 W/m 3.2 C 10.0 C 8.8 km/h (2 Bft)
05.04.2008 13:00 12.1 C 54 % 1012.5 hPa 0.0 l/m 4.6 km/h (1 Bft) W 0.70 h 511 W/m 3.0 C 12.1 C 7.9 km/h (2 Bft)
05.04.2008 14:00 13.4 C 48 % 1011.3 hPa 0.0 l/m 7.7 km/h (2 Bft) W 0.63 h 503 W/m 2.7 C 13.4 C 12.2 km/h (2 Bft)
05.04.2008 15:00 13.1 C 48 % 1010.4 hPa 0.0 l/m 9.5 km/h (2 Bft) W 0.28 h 393 W/m 2.4 C 13.1 C 14.7 km/h (3 Bft)
05.04.2008 16:00 13.3 C 45 % 1009.3 hPa 0.0 l/m 12.2 km/h (2 Bft) W 0.35 h 313 W/m 1.7 C 13.3 C 19.6 km/h (3 Bft)
05.04.2008 17:00 13.1 C 46 % 1008.3 hPa 0.0 l/m 9.1 km/h (2 Bft) W 0.45 h 242 W/m 1.8 C 13.1 C 14.8 km/h (3 Bft)
05.04.2008 18:00 12.9 C 46 % 1007.0 hPa 0.0 l/m 7.9 km/h (2 Bft) W-SW 0.12 h 105 W/m 1.6 C 12.9 C 13.0 km/h (3 Bft)
05.04.2008 19:00 11.8 C 51 % 1006.3 hPa 0.0 l/m 1.7 km/h (1 Bft) W-SW 0.00 h 29 W/m 2.0 C 11.8 C 3.8 km/h (1 Bft)
05.04.2008 20:00 10.8 C 60 % 1006.0 hPa 0.0 l/m 8.0 km/h (2 Bft) W-NW 0.00 h 0 W/m 3.3 C 10.8 C 13.1 km/h (3 Bft)
05.04.2008 21:00 9.4 C 71 % 1006.0 hPa 0.0 l/m 11.3 km/h (2 Bft) W 0.00 h 0 W/m 4.4 C 7.9 C 16.6 km/h (3 Bft)
05.04.2008 22:00 7.4 C 85 % 1006.0 hPa 1.2 l/m 15.6 km/h (3 Bft) W 0.00 h 0 W/m 4.9 C 4.6 C 23.9 km/h (4 Bft)
05.04.2008 23:00 6.2 C 91 % 1005.5 hPa 0.4 l/m 2.8 km/h (1 Bft) W-SW 0.00 h 0 W/m 4.8 C 5.9 C 5.6 km/h (1 Bft)
06.04.2008 00:00 6.1 C 94 % 1004.6 hPa 0.0 l/m 1.0 km/h (0 Bft) W-SW 0.00 h 0 W/m 5.3 C 6.1 C 2.4 km/h (1 Bft)
06.04.2008 01:00 6.2 C 93 % 1003.8 hPa 0.2 l/m 7.4 km/h (2 Bft) W-SW 0.00 h 0 W/m 5.2 C 4.9 C 11.6 km/h (2 Bft)
06.04.2008 02:00 6.0 C 91 % 1003.2 hPa 0.4 l/m 8.6 km/h (2 Bft) W-SW 0.00 h 0 W/m 4.5 C 4.2 C 13.5 km/h (3 Bft)
06.04.2008 03:00 5.6 C 91 % 1002.8 hPa 0.2 l/m 9.0 km/h (2 Bft) W 0.00 h 0 W/m 4.3 C 3.7 C 14.4 km/h (3 Bft)
06.04.2008 04:00 4.9 C 87 % 1003.0 hPa 0.0 l/m 7.8 km/h (2 Bft) W 0.00 h 0 W/m 2.8 C 3.2 C 11.9 km/h (2 Bft)
06.04.2008 05:00 4.0 C 86 % 1003.0 hPa 0.0 l/m 7.7 km/h (2 Bft) W 0.00 h 0 W/m 1.9 C 2.3 C 12.1 km/h (2 Bft)
06.04.2008 06:00 3.3 C 90 % 1002.9 hPa 0.0 l/m 5.9 km/h (2 Bft) W 0.00 h 0 W/m 1.8 C 2.0 C 9.7 km/h (2 Bft)
06.04.2008 07:00 3.2 C 90 % 1003.3 hPa 0.0 l/m 9.1 km/h (2 Bft) W 0.00 h 14 W/m 1.7 C 0.9 C 14.8 km/h (3 Bft)
06.04.2008 08:00 3.6 C 88 % 1003.8 hPa 0.0 l/m 7.4 km/h (2 Bft) W-SW 0.00 h 77 W/m 1.8 C 1.8 C 11.9 km/h (2 Bft)
06.04.2008 09:00 4.0 C 85 % 1004.0 hPa 0.0 l/m 7.7 km/h (2 Bft) W 0.00 h 98 W/m 1.7 C 2.1 C 11.6 km/h (2 Bft)
06.04.2008 10:00 4.1 C 89 % 1004.2 hPa 0.0 l/m 3.6 km/h (1 Bft) S-SW 0.00 h 140 W/m 2.4 C 3.8 C 6.4 km/h (2 Bft)
06.04.2008 11:00 5.0 C 84 % 1004.2 hPa 0.0 l/m 2.8 km/h (1 Bft) S-SO 0.25 h 319 W/m 2.5 C 4.7 C 5.5 km/h (1 Bft)
06.04.2008 12:00 6.1 C 66 % 1003.7 hPa 0.0 l/m 7.5 km/h (2 Bft) W-NW 0.02 h 243 W/m 0.3 C 4.6 C 12.2 km/h (3 Bft)
06.04.2008 13:00 7.6 C 56 % 1002.8 hPa 0.0 l/m 8.7 km/h (2 Bft) W-SW 0.78 h 687 W/m -0.6 C 6.2 C 13.4 km/h (3 Bft)
06.04.2008 14:00 7.7 C 56 % 1002.0 hPa 0.0 l/m 9.4 km/h (2 Bft) W 0.28 h 390 W/m -0.8 C 6.1 C 15.4 km/h (3 Bft)
06.04.2008 15:00 7.4 C 71 % 1001.4 hPa 0.0 l/m 6.5 km/h (2 Bft) S-SW 0.42 h 398 W/m 2.5 C 6.4 C 12.3 km/h (3 Bft)
06.04.2008 16:00 6.7 C 74 % 1001.4 hPa 0.0 l/m 6.7 km/h (2 Bft) S-SW 0.12 h 263 W/m 2.3 C 5.6 C 12.1 km/h (2 Bft)
06.04.2008 17:00 6.0 C 77 % 1001.2 hPa 0.2 l/m 5.9 km/h (2 Bft) S-SW 0.10 h 142 W/m 2.3 C 5.0 C 10.1 km/h (2 Bft)
06.04.2008 18:00 4.7 C 87 % 1001.1 hPa 0.2 l/m 3.0 km/h (1 Bft) SW 0.00 h 34 W/m 2.7 C 4.4 C 5.6 km/h (1 Bft)
06.04.2008 19:00 4.5 C 86 % 1000.8 hPa 0.2 l/m 3.3 km/h (1 Bft) S-SO 0.30 h 55 W/m 2.4 C 4.2 C 5.6 km/h (1 Bft)
06.04.2008 20:00 3.8 C 88 % 1000.5 hPa 0.0 l/m 0.7 km/h (0 Bft) S-SO 0.00 h 0 W/m 2.0 C 3.8 C 1.7 km/h (1 Bft)
06.04.2008 21:00 3.7 C 90 % 1000.1 hPa 0.2 l/m 2.8 km/h (1 Bft) SO 0.00 h 0 W/m 2.3 C 3.5 C 4.1 km/h (1 Bft)
06.04.2008 22:00 3.7 C 91 % 999.5 hPa 0.0 l/m 1.4 km/h (1 Bft) O-SO 0.00 h 0 W/m 2.5 C 3.7 C 2.8 km/h (1 Bft)
06.04.2008 23:00 3.7 C 90 % 998.9 hPa 0.4 l/m 2.8 km/h (1 Bft) S 0.00 h 0 W/m 2.3 C 3.5 C 5.6 km/h (1 Bft)
Min-Datum _ 04.04.08 05.04.08 06.04.08 - 31.03.08 - - - 06.04.08 06.04.08 31.03.08
_ Min-Zeit 07:00 15:56 23:30 - 00:00 - - - 14:24 07:42 00:00
Minimum _ 2.8 C 42 % 998.8 hPa - 0.0 km/h (0 Bft) - - - -2.9 C -0.4 C 0.0 km/h (0 Bft)
Max-Datum _ 01.04.08 01.04.08 04.04.08 03.04.08 02.04.08 - 31.03.08 06.04.08 01.04.08 01.04.08 02.04.08
_ Max-Zeit 17:01 01:04 10:45 04:03 10:59 - 15:37 11:53 14:51 17:01 11:47
Maximum _ 15.4 C 97 % 1028.4 hPa 1.6 l/m 31.3 km/h
W (5 Bft)
- 0.02 h 1048 W/m 7.3 C 15.4 C 50.4 km/h
W (7 Bft)
Durchschnitt _ 8.0 C 75 % 1018.4 hPa #9.2 l/m 5.4 km/h (1 Bft) W #14:16 h 201 W/m 3.5 C 7.6 C 8.8 km/h (2 Bft)
© Kaiko 2008